createdAt,value
2023-07-03T00:00:25.042Z,41.54
2023-07-03T00:01:25.045Z,41.57
2023-07-03T00:02:25.076Z,41.56
2023-07-03T00:03:25.044Z,41.57
2023-07-03T00:04:25.099Z,41.56
2023-07-03T00:05:25.163Z,41.56
2023-07-03T00:06:24.999Z,41.56
2023-07-03T00:07:24.983Z,41.56
2023-07-03T00:08:24.973Z,41.58
2023-07-03T00:09:24.972Z,41.56
2023-07-03T00:10:24.993Z,41.58
2023-07-03T00:11:24.966Z,41.58
2023-07-03T00:12:24.976Z,41.57
2023-07-03T00:13:24.942Z,41.56
2023-07-03T00:14:24.951Z,41.58
2023-07-03T00:15:24.982Z,41.56
2023-07-03T00:16:24.955Z,41.58
2023-07-03T00:17:24.979Z,41.57
2023-07-03T00:18:24.951Z,41.56
2023-07-03T00:19:24.915Z,41.57
2023-07-03T00:20:24.951Z,41.58
2023-07-03T00:21:24.905Z,41.58
2023-07-03T00:22:24.891Z,41.57
2023-07-03T00:23:24.901Z,41.58
2023-07-03T00:24:24.889Z,41.58
2023-07-03T00:25:24.884Z,41.59
2023-07-03T00:26:24.890Z,41.61
2023-07-03T00:27:24.874Z,41.60
2023-07-03T00:28:24.885Z,41.58
2023-07-03T00:29:24.853Z,41.60
2023-07-03T00:30:24.891Z,41.58
2023-07-03T00:31:24.887Z,41.58
2023-07-03T00:32:24.885Z,41.61
2023-07-03T00:33:24.836Z,41.59
2023-07-03T00:34:24.854Z,41.58
2023-07-03T00:35:24.849Z,41.57
2023-07-03T00:36:24.796Z,41.59
2023-07-03T00:37:24.807Z,41.58
2023-07-03T00:38:24.790Z,41.61
2023-07-03T00:39:24.778Z,41.60
2023-07-03T00:40:24.795Z,41.59
2023-07-03T00:41:24.769Z,41.58
2023-07-03T00:42:24.751Z,41.58
2023-07-03T00:43:24.753Z,41.57
2023-07-03T00:44:24.798Z,41.58
2023-07-03T00:45:24.753Z,41.59
2023-07-03T00:46:24.763Z,41.60
2023-07-03T00:47:24.758Z,41.59
2023-07-03T00:48:24.729Z,41.60
2023-07-03T00:49:24.715Z,41.58
2023-07-03T00:50:24.724Z,41.58
2023-07-03T00:51:24.694Z,41.57
2023-07-03T00:52:24.699Z,41.59
2023-07-03T00:53:24.698Z,41.58
2023-07-03T00:54:24.667Z,41.58
2023-07-03T00:55:24.665Z,41.58
2023-07-03T00:56:24.667Z,41.58
2023-07-03T00:57:24.686Z,41.60
2023-07-03T00:58:24.661Z,41.58
2023-07-03T00:59:24.636Z,41.59
2023-07-03T01:01:31.701Z,41.63
2023-07-03T01:02:24.648Z,41.63
2023-07-03T01:03:25.093Z,41.63
2023-07-03T01:04:24.687Z,41.60
2023-07-03T01:05:24.704Z,41.61
2023-07-03T01:06:24.605Z,41.63
2023-07-03T01:07:24.576Z,41.64
2023-07-03T01:08:24.610Z,41.63
2023-07-03T01:09:24.580Z,41.63
2023-07-03T01:10:24.564Z,41.62
2023-07-03T01:11:24.609Z,41.62
2023-07-03T01:12:24.549Z,41.63
2023-07-03T01:13:24.544Z,41.63
2023-07-03T01:14:24.546Z,41.62
2023-07-03T01:15:24.560Z,41.62
2023-07-03T01:16:24.525Z,41.63
2023-07-03T01:17:24.519Z,41.62
2023-07-03T01:18:24.547Z,41.64
2023-07-03T01:19:24.506Z,41.61
2023-07-03T01:20:24.523Z,41.61
2023-07-03T01:21:24.501Z,41.62
2023-07-03T01:22:24.492Z,41.61
2023-07-03T01:23:24.519Z,41.61
2023-07-03T01:24:24.471Z,41.63
2023-07-03T01:25:24.473Z,41.62
2023-07-03T01:26:24.463Z,41.62
2023-07-03T01:27:24.548Z,41.63
2023-07-03T01:28:24.509Z,41.63
2023-07-03T01:29:24.450Z,41.61
2023-07-03T01:30:24.433Z,41.61
2023-07-03T01:31:24.453Z,41.65
2023-07-03T01:32:24.430Z,41.60
2023-07-03T01:33:24.427Z,41.62
2023-07-03T01:34:24.407Z,41.65
2023-07-03T01:35:24.405Z,41.63
2023-07-03T01:36:24.397Z,41.61
2023-07-03T01:37:24.399Z,41.62
2023-07-03T01:38:24.387Z,41.63
2023-07-03T01:39:24.371Z,41.64
2023-07-03T01:40:24.375Z,41.63
2023-07-03T01:41:24.383Z,41.63
2023-07-03T01:42:24.347Z,41.63
2023-07-03T01:43:24.355Z,41.63
2023-07-03T01:44:24.342Z,41.61
2023-07-03T01:45:24.357Z,41.62
2023-07-03T01:46:24.366Z,41.64
2023-07-03T01:47:24.357Z,41.63
2023-07-03T01:48:24.344Z,41.62
2023-07-03T01:49:24.304Z,41.63
2023-07-03T01:50:24.355Z,41.62
2023-07-03T01:51:24.290Z,41.63
2023-07-03T01:52:24.321Z,41.64
2023-07-03T01:53:24.288Z,41.64
2023-07-03T01:54:24.267Z,41.63
2023-07-03T01:55:24.272Z,41.63
2023-07-03T01:56:24.279Z,41.63
2023-07-03T01:57:24.252Z,41.64
2023-07-03T01:58:24.286Z,41.64
2023-07-03T01:59:24.238Z,41.66
2023-07-03T02:00:24.246Z,41.63
2023-07-03T02:01:24.286Z,41.64
2023-07-03T02:02:24.303Z,41.63
2023-07-03T02:03:24.286Z,41.64
2023-07-03T02:04:24.274Z,41.64
2023-07-03T02:05:24.206Z,41.65
2023-07-03T02:06:24.234Z,41.65
2023-07-03T02:07:24.179Z,41.65
2023-07-03T02:08:24.166Z,41.62
2023-07-03T02:09:24.158Z,41.64
2023-07-03T02:10:24.160Z,41.65
2023-07-03T02:11:24.160Z,41.63
2023-07-03T02:12:24.146Z,41.64
2023-07-03T02:13:24.146Z,41.66
2023-07-03T02:14:24.129Z,41.64
2023-07-03T02:15:24.119Z,41.65
2023-07-03T02:16:24.181Z,41.64
2023-07-03T02:17:24.145Z,41.63
2023-07-03T02:18:24.098Z,41.68
2023-07-03T02:19:24.088Z,41.65
2023-07-03T02:20:24.085Z,41.67
2023-07-03T02:21:24.089Z,41.68
2023-07-03T02:22:24.116Z,41.68
2023-07-03T02:23:24.133Z,41.65
2023-07-03T02:24:24.139Z,41.67
2023-07-03T02:25:24.131Z,41.66
2023-07-03T02:26:24.182Z,41.67
2023-07-03T02:27:24.157Z,41.68
2023-07-03T02:28:24.173Z,41.65
2023-07-03T02:29:24.176Z,41.67
2023-07-03T02:30:24.183Z,41.66
2023-07-03T02:31:24.228Z,41.69
2023-07-03T02:32:24.245Z,41.66
2023-07-03T02:33:24.214Z,41.66
2023-07-03T02:34:24.229Z,41.68
2023-07-03T02:35:24.249Z,41.67
2023-07-03T02:36:24.249Z,41.66
2023-07-03T02:37:24.279Z,41.66
2023-07-03T02:38:24.283Z,41.64
2023-07-03T02:39:24.308Z,41.68
2023-07-03T02:40:24.357Z,41.66
2023-07-03T02:41:24.331Z,41.66
2023-07-03T02:42:24.367Z,41.64
2023-07-03T02:43:24.351Z,41.67
2023-07-03T02:44:24.368Z,41.70
2023-07-03T02:45:24.411Z,41.68
2023-07-03T02:46:24.368Z,41.65
2023-07-03T02:47:24.455Z,41.66
2023-07-03T02:48:24.390Z,41.67
2023-07-03T02:49:24.445Z,41.70
2023-07-03T02:50:24.412Z,41.66
2023-07-03T02:51:24.411Z,41.68
2023-07-03T02:52:24.429Z,41.67
2023-07-03T02:53:24.433Z,41.67
2023-07-03T02:54:24.442Z,41.68
2023-07-03T02:55:24.469Z,41.67
2023-07-03T02:56:24.500Z,41.68
2023-07-03T02:57:24.495Z,41.68
2023-07-03T02:58:24.487Z,41.71
2023-07-03T02:59:24.516Z,41.68
2023-07-03T03:00:24.571Z,41.69
2023-07-03T03:01:24.578Z,41.70
2023-07-03T03:02:24.561Z,41.71
2023-07-03T03:03:24.778Z,41.69
2023-07-03T03:04:24.615Z,41.70
2023-07-03T03:05:24.567Z,41.72
2023-07-03T03:06:24.562Z,41.71
2023-07-03T03:07:24.566Z,41.68
2023-07-03T03:08:24.568Z,41.69
2023-07-03T03:09:24.677Z,41.69
2023-07-03T03:10:24.607Z,41.70
2023-07-03T03:11:24.601Z,41.69
2023-07-03T03:12:24.633Z,41.69
2023-07-03T03:13:24.611Z,41.71
2023-07-03T03:14:24.617Z,41.68
2023-07-03T03:15:24.643Z,41.70
2023-07-03T03:16:24.677Z,41.71
2023-07-03T03:17:24.672Z,41.72
2023-07-03T03:18:24.677Z,41.66
2023-07-03T03:19:24.661Z,41.71
2023-07-03T03:20:24.677Z,41.71
2023-07-03T03:21:24.748Z,41.72
2023-07-03T03:22:24.714Z,41.70
2023-07-03T03:23:24.740Z,41.70
2023-07-03T03:24:24.725Z,41.70
2023-07-03T03:25:24.766Z,41.69
2023-07-03T03:26:24.752Z,41.72
2023-07-03T03:27:24.758Z,41.69
2023-07-03T03:28:24.873Z,41.73
2023-07-03T03:29:24.791Z,41.70
2023-07-03T03:30:24.802Z,41.72
2023-07-03T03:31:24.864Z,41.70
2023-07-03T03:32:24.832Z,41.71
2023-07-03T03:33:24.824Z,41.67
2023-07-03T03:34:24.832Z,41.71
2023-07-03T03:35:24.852Z,41.71
2023-07-03T03:36:25.842Z,41.73
2023-07-03T03:37:24.840Z,41.71
2023-07-03T03:38:24.858Z,41.70
2023-07-03T03:39:24.892Z,41.69
2023-07-03T03:40:24.891Z,41.69
2023-07-03T03:41:24.893Z,41.73
2023-07-03T03:42:24.897Z,41.70
2023-07-03T03:43:24.920Z,41.70
2023-07-03T03:44:24.950Z,41.70
2023-07-03T03:45:24.928Z,41.70
2023-07-03T03:46:24.947Z,41.71
2023-07-03T03:47:25.000Z,41.70
2023-07-03T03:48:25.084Z,41.68
2023-07-03T03:49:24.980Z,41.71
2023-07-03T03:50:25.000Z,41.70
2023-07-03T03:51:24.991Z,41.70
2023-07-03T03:52:25.009Z,41.71
2023-07-03T03:53:25.024Z,41.70
2023-07-03T03:54:25.042Z,41.71
2023-07-03T03:55:25.026Z,41.71
2023-07-03T03:56:25.191Z,41.70
2023-07-03T03:57:25.184Z,41.71
2023-07-03T03:58:25.068Z,41.70
2023-07-03T03:59:25.067Z,41.70
2023-07-03T04:00:25.075Z,41.69
2023-07-03T04:01:25.154Z,41.67
2023-07-03T04:02:25.115Z,41.68
2023-07-03T04:03:25.133Z,41.70
2023-07-03T04:04:25.285Z,41.68
2023-07-03T04:05:25.102Z,41.67
2023-07-03T04:06:25.115Z,41.71
2023-07-03T04:07:25.138Z,41.69
2023-07-03T04:08:25.163Z,41.71
2023-07-03T04:09:25.133Z,41.71
2023-07-03T04:10:25.144Z,41.72
2023-07-03T04:11:25.155Z,41.70
2023-07-03T04:12:25.160Z,41.70
2023-07-03T04:13:25.204Z,41.69
2023-07-03T04:14:25.182Z,41.70
2023-07-03T04:15:25.182Z,41.72
2023-07-03T04:16:25.228Z,41.70
2023-07-03T04:17:25.232Z,41.70
2023-07-03T04:18:25.230Z,41.71
2023-07-03T04:19:25.246Z,41.69
2023-07-03T04:20:25.279Z,41.69
2023-07-03T04:21:25.300Z,41.68
2023-07-03T04:22:25.263Z,41.69
2023-07-03T04:23:25.266Z,41.70
2023-07-03T04:24:25.288Z,41.68
2023-07-03T04:25:25.295Z,41.68
2023-07-03T04:26:25.308Z,41.68
2023-07-03T04:27:25.315Z,41.68
2023-07-03T04:28:25.316Z,41.69
2023-07-03T04:29:25.352Z,41.68
2023-07-03T04:30:25.338Z,41.68
2023-07-03T04:31:25.390Z,41.70
2023-07-03T04:32:25.425Z,41.69
2023-07-03T04:33:25.400Z,41.68
2023-07-03T04:34:25.397Z,41.70
2023-07-03T04:35:25.402Z,41.66
2023-07-03T04:36:25.410Z,41.67
2023-07-03T04:37:25.416Z,41.69
2023-07-03T04:38:25.574Z,41.70
2023-07-03T04:39:25.455Z,41.66
2023-07-03T04:40:25.459Z,41.69
2023-07-03T04:41:25.500Z,41.69
2023-07-03T04:42:25.522Z,41.68
2023-07-03T04:43:25.537Z,41.69
2023-07-03T04:44:25.537Z,41.65
2023-07-03T04:45:25.502Z,41.69
2023-07-03T04:46:25.598Z,41.67
2023-07-03T04:47:25.555Z,41.68
2023-07-03T04:48:25.536Z,41.68
2023-07-03T04:49:25.544Z,41.69
2023-07-03T04:50:25.571Z,41.71
2023-07-03T04:51:25.570Z,41.68
2023-07-03T04:52:25.572Z,41.69
2023-07-03T04:53:25.583Z,41.71
2023-07-03T04:54:25.601Z,41.67
2023-07-03T04:55:25.623Z,41.65
2023-07-03T04:56:25.635Z,41.66
2023-07-03T04:57:25.628Z,41.66
2023-07-03T04:58:25.661Z,41.66
2023-07-03T04:59:25.658Z,41.66
2023-07-03T05:00:25.662Z,41.67
2023-07-03T05:01:25.705Z,41.67
2023-07-03T05:02:25.731Z,41.67
2023-07-03T05:03:25.716Z,41.67
2023-07-03T05:04:25.758Z,41.66
2023-07-03T05:05:25.725Z,41.64
2023-07-03T05:06:25.769Z,41.65
2023-07-03T05:07:25.739Z,41.65
2023-07-03T05:08:25.762Z,41.68
2023-07-03T05:09:25.756Z,41.67
2023-07-03T05:10:25.782Z,41.67
2023-07-03T05:11:25.782Z,41.66
2023-07-03T05:12:25.842Z,41.64
2023-07-03T05:13:25.807Z,41.65
2023-07-03T05:14:25.802Z,41.65
2023-07-03T05:15:25.856Z,41.66
2023-07-03T05:16:25.965Z,41.63
2023-07-03T05:17:25.945Z,41.65
2023-07-03T05:18:25.932Z,41.62
2023-07-03T05:19:25.911Z,41.60
2023-07-03T05:20:25.930Z,41.61
2023-07-03T05:21:25.923Z,41.59
2023-07-03T05:22:25.922Z,41.62
2023-07-03T05:23:25.934Z,41.59
2023-07-03T05:24:25.933Z,41.59
2023-07-03T05:25:25.958Z,41.60
2023-07-03T05:26:25.958Z,41.59
2023-07-03T05:27:25.951Z,41.88
2023-07-03T05:28:25.961Z,42.20
2023-07-03T05:29:25.966Z,42.37
2023-07-03T05:30:26.028Z,42.03
2023-07-03T05:31:26.318Z,41.99
2023-07-03T05:32:26.042Z,42.29
2023-07-03T05:33:26.063Z,42.60
2023-07-03T05:34:26.064Z,42.76
2023-07-03T05:35:26.023Z,42.60
2023-07-03T05:36:26.071Z,43.26
2023-07-03T05:37:26.026Z,42.87
2023-07-03T05:38:26.081Z,42.82
2023-07-03T05:39:26.072Z,42.87
2023-07-03T05:40:26.095Z,43.13
2023-07-03T05:41:26.248Z,43.53
2023-07-03T05:42:26.144Z,43.90
2023-07-03T05:43:26.737Z,43.70
2023-07-03T05:44:26.114Z,43.65
2023-07-03T05:45:26.109Z,44.12
2023-07-03T05:46:26.236Z,44.08
2023-07-03T05:47:26.341Z,44.12
2023-07-03T05:48:26.143Z,43.88
2023-07-03T05:49:26.152Z,44.40
2023-07-03T05:50:26.174Z,45.02
2023-07-03T05:51:26.745Z,45.51
2023-07-03T05:52:26.324Z,44.75
2023-07-03T05:53:26.193Z,44.29
2023-07-03T05:54:26.186Z,44.09
2023-07-03T05:55:26.205Z,43.95
2023-07-03T05:56:26.225Z,43.78
2023-07-03T05:57:26.226Z,43.71
2023-07-03T05:58:26.260Z,43.75
2023-07-03T05:59:26.262Z,43.77
2023-07-03T06:00:26.264Z,43.79
2023-07-03T06:01:26.776Z,43.83
2023-07-03T06:02:26.281Z,43.83
2023-07-03T06:03:26.477Z,44.01
2023-07-03T06:04:26.296Z,44.20
2023-07-03T06:05:26.245Z,44.03
2023-07-03T06:06:26.247Z,43.95
2023-07-03T06:07:26.405Z,44.49
2023-07-03T06:08:26.381Z,44.31
2023-07-03T06:09:26.243Z,44.24
2023-07-03T06:10:26.301Z,44.77
2023-07-03T06:11:26.272Z,45.24
2023-07-03T06:12:26.275Z,44.75
2023-07-03T06:13:26.272Z,44.42
2023-07-03T06:14:26.255Z,44.44
2023-07-03T06:15:26.262Z,44.39
2023-07-03T06:16:26.311Z,44.48
2023-07-03T06:17:26.339Z,44.36
2023-07-03T06:18:26.331Z,44.10
2023-07-03T06:19:26.332Z,44.09
2023-07-03T06:20:26.326Z,44.11
2023-07-03T06:21:26.366Z,43.95
2023-07-03T06:22:26.387Z,43.79
2023-07-03T06:23:26.448Z,44.37
2023-07-03T06:24:26.504Z,45.08
2023-07-03T06:25:26.544Z,45.06
2023-07-03T06:26:26.617Z,45.29
2023-07-03T06:27:26.680Z,45.00
2023-07-03T06:28:26.719Z,45.07
2023-07-03T06:29:26.757Z,45.16
2023-07-03T06:30:26.806Z,45.21
2023-07-03T06:31:26.857Z,44.99
2023-07-03T06:32:27.005Z,44.78
2023-07-03T06:33:26.898Z,46.67
2023-07-03T06:34:26.919Z,45.96
2023-07-03T06:35:26.961Z,45.94
2023-07-03T06:36:26.960Z,46.11
2023-07-03T06:37:26.941Z,46.35
2023-07-03T06:38:26.954Z,45.79
2023-07-03T06:39:27.034Z,46.21
2023-07-03T06:40:26.988Z,46.04
2023-07-03T06:41:26.968Z,46.20
2023-07-03T06:42:28.378Z,45.98
2023-07-03T06:43:26.989Z,45.98
2023-07-03T06:44:26.999Z,45.98
2023-07-03T06:45:26.992Z,46.08
2023-07-03T06:46:27.017Z,46.07
2023-07-03T06:47:27.088Z,45.91
2023-07-03T06:48:27.036Z,45.99
2023-07-03T06:49:27.061Z,45.90
2023-07-03T06:50:27.090Z,45.88
2023-07-03T06:51:27.302Z,45.62
2023-07-03T06:52:27.167Z,45.61
2023-07-03T06:53:27.185Z,45.58
2023-07-03T06:54:27.215Z,45.61
2023-07-03T06:55:27.367Z,45.48
2023-07-03T06:56:27.771Z,45.46
2023-07-03T06:57:27.346Z,45.65
2023-07-03T06:58:27.415Z,45.45
2023-07-03T06:59:27.470Z,45.21
2023-07-03T07:00:27.529Z,45.24
2023-07-03T07:01:27.565Z,45.55
2023-07-03T07:02:27.718Z,45.53
2023-07-03T07:03:27.769Z,45.45
2023-07-03T07:04:29.525Z,45.37
2023-07-03T07:05:27.815Z,45.23
2023-07-03T07:06:27.836Z,45.18
2023-07-03T07:07:27.847Z,45.09
2023-07-03T07:08:27.938Z,45.06
2023-07-03T07:09:27.963Z,45.16
2023-07-03T07:10:28.034Z,45.12
2023-07-03T07:11:28.184Z,45.10
2023-07-03T07:12:28.156Z,45.13
2023-07-03T07:13:28.235Z,44.90
2023-07-03T07:14:28.276Z,44.86
2023-07-03T07:15:28.335Z,45.00
2023-07-03T07:16:28.445Z,44.80
2023-07-03T07:17:42.055Z,44.60
2023-07-03T07:18:29.469Z,44.52
2023-07-03T07:19:28.482Z,44.45
2023-07-03T07:20:28.447Z,44.35
2023-07-03T07:21:28.441Z,44.04
2023-07-03T07:22:28.450Z,44.00
2023-07-03T07:23:28.431Z,44.01
2023-07-03T07:24:28.427Z,44.01
2023-07-03T07:25:28.396Z,43.90
2023-07-03T07:26:28.425Z,43.87
2023-07-03T07:27:28.501Z,43.76
2023-07-03T07:28:28.506Z,43.51
2023-07-03T07:29:28.526Z,43.39
2023-07-03T07:30:28.618Z,43.48
2023-07-03T07:31:28.601Z,43.35
2023-07-03T07:32:28.618Z,43.40
2023-07-03T07:33:28.630Z,44.18
2023-07-03T07:34:28.605Z,43.86
2023-07-03T07:35:28.580Z,44.22
2023-07-03T07:36:28.665Z,42.89
2023-07-03T07:37:28.602Z,43.29
2023-07-03T07:38:28.590Z,43.12
2023-07-03T07:39:28.600Z,43.13
2023-07-03T07:40:28.588Z,43.78
2023-07-03T07:41:28.620Z,42.87
2023-07-03T07:42:28.595Z,42.75
2023-07-03T07:43:28.722Z,42.76
2023-07-03T07:44:28.658Z,42.29
2023-07-03T07:45:28.598Z,42.00
2023-07-03T07:46:28.629Z,42.20
2023-07-03T07:47:28.661Z,42.40
2023-07-03T07:48:29.973Z,42.23
2023-07-03T07:49:28.637Z,41.77
2023-07-03T07:50:28.688Z,41.80
2023-07-03T07:51:28.609Z,41.57
2023-07-03T07:52:28.605Z,41.45
2023-07-03T07:53:28.580Z,41.46
2023-07-03T07:54:28.573Z,41.24
2023-07-03T07:55:28.575Z,41.26
2023-07-03T07:56:29.828Z,41.05
2023-07-03T07:57:28.548Z,41.00
2023-07-03T07:58:28.560Z,40.86
2023-07-03T07:59:28.610Z,40.58
2023-07-03T08:00:28.730Z,40.45
2023-07-03T08:01:28.635Z,40.43
2023-07-03T08:02:28.640Z,40.29
2023-07-03T08:03:28.718Z,40.40
2023-07-03T08:04:28.604Z,40.45
2023-07-03T08:05:28.567Z,40.63
2023-07-03T08:06:28.538Z,40.40
2023-07-03T08:07:28.526Z,40.25
2023-07-03T08:08:28.477Z,40.32
2023-07-03T08:09:28.462Z,39.91
2023-07-03T08:10:29.318Z,39.80
2023-07-03T08:11:28.504Z,40.02
2023-07-03T08:12:28.463Z,39.59
2023-07-03T08:13:28.456Z,39.61
2023-07-03T08:14:28.465Z,39.61
2023-07-03T08:15:28.534Z,39.44
2023-07-03T08:16:28.532Z,39.20
2023-07-03T08:17:28.454Z,39.35
2023-07-03T08:18:28.429Z,39.20
2023-07-03T08:19:28.444Z,39.25
2023-07-03T08:20:28.406Z,39.42
2023-07-03T08:21:28.430Z,38.99
2023-07-03T08:22:28.394Z,38.96
2023-07-03T08:23:28.416Z,38.85
2023-07-03T08:24:28.392Z,38.64
2023-07-03T08:25:28.379Z,38.34
2023-07-03T08:26:28.392Z,38.37
2023-07-03T08:27:28.365Z,38.27
2023-07-03T08:28:28.368Z,38.11
2023-07-03T08:29:28.404Z,38.00
2023-07-03T08:30:28.389Z,37.99
2023-07-03T08:31:28.533Z,37.64
2023-07-03T08:32:28.343Z,37.84
2023-07-03T08:33:28.388Z,37.41
2023-07-03T08:34:28.328Z,37.49
2023-07-03T08:37:28.307Z,37.12
2023-07-03T08:38:28.301Z,37.01
2023-07-03T08:39:28.295Z,36.75
2023-07-03T08:40:28.275Z,36.85
2023-07-03T08:41:28.300Z,36.82
2023-07-03T08:42:28.273Z,37.51
2023-07-03T08:43:28.260Z,36.69
2023-07-03T08:44:28.257Z,37.18
2023-07-03T08:45:28.277Z,38.17
2023-07-03T08:46:28.330Z,38.45
2023-07-03T08:47:28.422Z,38.77
2023-07-03T08:48:28.240Z,38.60
2023-07-03T08:49:28.267Z,38.86
2023-07-03T08:50:36.991Z,39.53
2023-07-03T08:51:29.442Z,39.23
2023-07-03T08:52:28.215Z,38.95
2023-07-03T08:53:28.225Z,38.93
2023-07-03T08:54:28.183Z,39.10
2023-07-03T08:55:28.204Z,39.49
2023-07-03T08:56:28.184Z,38.07
2023-07-03T08:57:28.163Z,38.70
2023-07-03T08:58:28.165Z,39.06
2023-07-03T08:59:28.163Z,39.13
2023-07-03T09:00:28.148Z,39.12
2023-07-03T09:01:28.185Z,39.57
2023-07-03T09:02:28.254Z,39.54
2023-07-03T09:03:28.268Z,39.52
2023-07-03T09:04:28.171Z,39.97
2023-07-03T09:05:28.110Z,39.94
2023-07-03T09:06:28.100Z,39.97
2023-07-03T09:07:28.123Z,39.89
2023-07-03T09:08:28.089Z,39.89
2023-07-03T09:09:28.081Z,39.96
2023-07-03T09:10:28.086Z,39.77
2023-07-03T09:11:28.347Z,39.65
2023-07-03T09:12:28.068Z,39.65
2023-07-03T09:13:28.068Z,39.43
2023-07-03T09:14:28.064Z,39.27
2023-07-03T09:15:28.131Z,39.49
2023-07-03T09:16:28.200Z,39.35
2023-07-03T09:17:28.236Z,39.40
2023-07-03T09:18:28.231Z,39.25
2023-07-03T09:19:28.521Z,39.26
2023-07-03T09:20:28.289Z,39.30
2023-07-03T09:21:28.356Z,39.42
2023-07-03T09:22:28.403Z,39.48
2023-07-03T09:23:28.473Z,39.54
2023-07-03T09:24:28.538Z,39.57
2023-07-03T09:25:28.644Z,39.57
2023-07-03T09:26:28.787Z,39.76
2023-07-03T09:27:28.709Z,39.75
2023-07-03T09:28:28.765Z,40.18
2023-07-03T09:29:28.814Z,40.01
2023-07-03T09:30:28.858Z,40.01
2023-07-03T09:31:29.467Z,39.99
2023-07-03T09:32:29.040Z,40.02
2023-07-03T09:33:29.003Z,39.88
2023-07-03T09:34:29.035Z,39.80
2023-07-03T09:35:29.112Z,39.83
2023-07-03T09:36:29.081Z,39.83
2023-07-03T09:37:29.093Z,39.65
2023-07-03T09:38:29.134Z,39.77
2023-07-03T09:39:29.143Z,39.76
2023-07-03T09:40:29.569Z,39.77
2023-07-03T09:41:29.265Z,39.81
2023-07-03T09:42:29.314Z,39.79
2023-07-03T09:43:29.529Z,39.73
2023-07-03T09:44:29.297Z,39.82
2023-07-03T09:45:29.326Z,39.87
2023-07-03T09:46:29.359Z,39.88
2023-07-03T09:47:29.428Z,39.88
2023-07-03T09:48:29.428Z,39.88
2023-07-03T09:49:29.526Z,39.89
2023-07-03T09:50:29.468Z,39.91
2023-07-03T09:51:29.584Z,39.88
2023-07-03T09:52:29.534Z,39.90
2023-07-03T09:53:29.571Z,39.88
2023-07-03T09:54:29.608Z,39.90
2023-07-03T09:55:29.640Z,39.86
2023-07-03T09:56:29.672Z,39.81
2023-07-03T09:57:29.715Z,39.72
2023-07-03T09:58:29.754Z,39.75
2023-07-03T09:59:29.784Z,39.77
2023-07-03T10:00:29.941Z,39.77
2023-07-03T10:03:30.575Z,39.77
2023-07-03T10:06:29.826Z,39.77
2023-07-03T10:07:29.895Z,39.71
2023-07-03T10:08:30.698Z,39.70
2023-07-03T10:11:29.814Z,39.78
2023-07-03T10:12:29.854Z,39.58
2023-07-03T10:13:29.780Z,39.64
2023-07-03T10:14:29.792Z,39.66
2023-07-03T10:15:29.762Z,39.53
2023-07-03T10:16:29.742Z,39.60
2023-07-03T10:17:29.826Z,39.48
2023-07-03T10:18:29.739Z,39.54
2023-07-03T10:19:29.715Z,39.71
2023-07-03T10:20:29.744Z,39.52
2023-07-03T10:21:29.750Z,39.58
2023-07-03T10:22:29.703Z,39.63
2023-07-03T10:23:29.847Z,39.49
2023-07-03T10:24:29.686Z,39.58
2023-07-03T10:25:29.685Z,39.59
2023-07-03T10:26:29.673Z,39.47
2023-07-03T10:27:29.668Z,39.47
2023-07-03T10:28:29.665Z,39.52
2023-07-03T10:29:29.671Z,39.45
2023-07-03T10:30:29.671Z,39.57
2023-07-03T10:31:29.658Z,39.58
2023-07-03T10:32:29.676Z,39.47
2023-07-03T10:33:29.651Z,39.55
2023-07-03T10:34:29.623Z,39.54
2023-07-03T10:35:29.604Z,39.48
2023-07-03T10:36:29.604Z,39.55
2023-07-03T10:37:29.604Z,39.57
2023-07-03T10:38:29.609Z,39.64
2023-07-03T10:39:30.976Z,39.63
2023-07-03T10:40:29.577Z,39.58
2023-07-03T10:41:29.577Z,39.49
2023-07-03T10:42:29.582Z,39.40
2023-07-03T10:43:29.565Z,39.36
2023-07-03T10:44:29.544Z,39.38
2023-07-03T10:45:29.548Z,39.48
2023-07-03T10:46:29.597Z,39.68
2023-07-03T10:47:29.563Z,39.77
2023-07-03T10:48:29.543Z,39.44
2023-07-03T10:49:29.518Z,39.43
2023-07-03T10:50:29.553Z,39.58
2023-07-03T10:51:29.585Z,39.55
2023-07-03T10:52:29.612Z,39.44
2023-07-03T10:53:29.661Z,39.54
2023-07-03T10:54:29.678Z,39.56
2023-07-03T10:55:29.793Z,39.56
2023-07-03T10:56:29.753Z,39.68
2023-07-03T10:57:29.818Z,39.80
2023-07-03T10:58:29.841Z,39.84
2023-07-03T10:59:29.859Z,39.85
2023-07-03T11:00:29.890Z,39.86
2023-07-03T11:01:29.961Z,39.90
2023-07-03T11:02:29.978Z,39.97
2023-07-03T11:03:30.061Z,39.96
2023-07-03T11:04:30.067Z,39.83
2023-07-03T11:05:30.079Z,39.76
2023-07-03T11:06:30.109Z,39.77
2023-07-03T11:07:30.171Z,39.88
2023-07-03T11:08:30.186Z,39.89
2023-07-03T11:09:30.234Z,39.91
2023-07-03T11:10:30.266Z,39.91
2023-07-03T11:11:30.472Z,39.73
2023-07-03T11:12:30.360Z,39.65
2023-07-03T11:13:30.412Z,39.67
2023-07-03T11:14:30.401Z,39.72
2023-07-03T11:15:30.432Z,39.81
2023-07-03T11:16:30.516Z,39.79
2023-07-03T11:17:30.529Z,39.67
2023-07-03T11:23:30.577Z,39.59
2023-07-03T11:24:30.529Z,39.57
2023-07-03T11:25:30.526Z,39.54
2023-07-03T11:28:30.513Z,39.53
2023-07-03T11:29:30.476Z,39.62
2023-07-03T11:30:30.472Z,39.61
2023-07-03T11:31:30.524Z,39.62
2023-07-03T11:32:30.476Z,39.67
2023-07-03T11:36:37.862Z,39.57
2023-07-03T11:40:30.446Z,39.37
2023-07-03T11:43:30.393Z,39.26
2023-07-03T11:44:30.385Z,39.21
2023-07-03T11:45:30.367Z,39.23
2023-07-03T11:46:30.408Z,39.21
2023-07-03T11:47:30.357Z,39.22
2023-07-03T11:48:30.351Z,39.21
2023-07-03T11:49:30.343Z,39.37
2023-07-03T11:50:30.357Z,39.30
2023-07-03T11:51:30.343Z,39.19
2023-07-03T11:52:30.358Z,39.18
2023-07-03T11:53:30.335Z,39.17
2023-07-03T11:54:30.336Z,39.22
2023-07-03T11:55:30.337Z,39.22
2023-07-03T11:56:30.318Z,39.14
2023-07-03T11:57:30.306Z,39.13
2023-07-03T11:58:30.299Z,39.13
2023-07-03T11:59:30.321Z,39.18
2023-07-03T12:00:30.338Z,39.17
2023-07-03T12:01:30.331Z,39.28
2023-07-03T12:02:30.310Z,39.26
2023-07-03T12:03:30.310Z,39.30
2023-07-03T12:04:30.262Z,39.26
2023-07-03T12:05:30.251Z,39.21
2023-07-03T12:06:30.250Z,39.22
2023-07-03T12:07:30.248Z,39.30
2023-07-03T12:08:30.228Z,39.33
2023-07-03T12:09:30.223Z,39.33
2023-07-03T12:10:30.225Z,39.37
2023-07-03T12:11:30.220Z,39.20
2023-07-03T12:12:30.214Z,39.21
2023-07-03T12:13:30.238Z,39.27
2023-07-03T12:14:30.189Z,39.40
2023-07-03T12:15:30.187Z,39.41
2023-07-03T12:16:30.237Z,39.38
2023-07-03T12:17:30.208Z,39.43
2023-07-03T12:18:30.166Z,39.41
2023-07-03T12:19:30.168Z,39.45
2023-07-03T12:20:30.149Z,39.48
2023-07-03T12:21:30.134Z,39.52
2023-07-03T12:22:30.149Z,39.46
2023-07-03T12:23:30.141Z,39.48
2023-07-03T12:24:30.137Z,39.43
2023-07-03T12:25:30.138Z,39.43
2023-07-03T12:26:30.118Z,39.38
2023-07-03T12:27:30.111Z,39.29
2023-07-03T12:28:30.095Z,39.29
2023-07-03T12:29:30.093Z,39.22
2023-07-03T12:30:30.108Z,39.25
2023-07-03T12:31:30.140Z,39.29
2023-07-03T12:32:30.091Z,39.26
2023-07-03T12:33:30.067Z,39.28
2023-07-03T12:34:30.073Z,39.24
2023-07-03T12:35:30.054Z,39.27
2023-07-03T12:36:32.177Z,39.23
2023-07-03T12:37:30.046Z,39.21
2023-07-03T12:38:30.033Z,39.17
2023-07-03T12:39:30.022Z,39.14
2023-07-03T12:40:30.034Z,39.09
2023-07-03T12:41:30.027Z,39.07
2023-07-03T12:42:30.004Z,39.13
2023-07-03T12:43:30.003Z,39.04
2023-07-03T12:44:30.024Z,39.12
2023-07-03T12:45:29.998Z,39.19
2023-07-03T12:46:30.032Z,39.20
2023-07-03T12:47:29.997Z,39.25
2023-07-03T12:48:29.968Z,39.29
2023-07-03T12:49:29.967Z,39.25
2023-07-03T12:50:29.966Z,39.27
2023-07-03T12:51:29.959Z,39.31
2023-07-03T12:52:29.945Z,39.34
2023-07-03T12:53:29.932Z,39.29
2023-07-03T12:54:29.925Z,39.28
2023-07-03T12:55:29.938Z,39.30
2023-07-03T12:56:29.927Z,39.30
2023-07-03T12:57:29.945Z,39.34
2023-07-03T12:58:29.917Z,39.35
2023-07-03T12:59:29.898Z,39.29
2023-07-03T13:00:29.927Z,39.20
2023-07-03T13:01:29.892Z,39.07
2023-07-03T13:02:29.907Z,39.05
2023-07-03T13:03:29.876Z,39.09
2023-07-03T13:04:29.890Z,39.14
2023-07-03T13:05:29.946Z,39.12
2023-07-03T13:06:29.858Z,39.18
2023-07-03T13:07:29.891Z,39.15
2023-07-03T13:08:29.854Z,39.08
2023-07-03T13:09:29.901Z,39.08
2023-07-03T13:10:29.832Z,39.08
2023-07-03T13:11:29.829Z,39.10
2023-07-03T13:12:29.847Z,39.08
2023-07-03T13:13:29.851Z,39.10
2023-07-03T13:14:29.856Z,39.14
2023-07-03T13:15:29.821Z,39.16
2023-07-03T13:16:29.834Z,39.09